Time;durP1;ratioP1;P1;durP2;ratioP2;P2;SDS_P1;SDS_P2;PMS_P1;PMS_P2;Temp;Humidity;BMP_temperature;BMP_pressure;BME280_temperature;BME280_humidity;BME280_pressure;Samples;Min_cycle;Max_cycle;Signal;HPM_P1;HPM_P2
2022/07/28 00:02:19;;;;;;;3.55;1.30;;;14.90;99.90;;;;;;5027050;28;20061;-62
2022/07/28 00:04:45;;;;;;;6.70;1.45;;;14.80;99.90;;;;;;5009266;28;20488;-61
2022/07/28 00:07:11;;;;;;;3.75;1.33;;;14.90;99.90;;;;;;5017205;28;20030;-62
2022/07/28 00:09:36;;;;;;;4.68;1.35;;;14.90;99.90;;;;;;5021577;28;20033;-62
2022/07/28 00:12:02;;;;;;;7.40;1.60;;;14.90;99.90;;;;;;5011855;28;20033;-62
2022/07/28 00:14:28;;;;;;;2.17;1.25;;;15.00;99.90;;;;;;5011890;28;20042;-62
2022/07/28 00:16:53;;;;;;;3.53;1.48;;;15.10;99.90;;;;;;5001161;28;20029;-62
2022/07/28 00:19:19;;;;;;;4.50;1.30;;;15.20;99.90;;;;;;5012756;28;20121;-62
2022/07/28 00:21:45;;;;;;;6.40;1.58;;;15.20;99.90;;;;;;5022079;28;20108;-61
2022/07/28 00:24:10;;;;;;;8.13;1.60;;;15.30;99.90;;;;;;5012986;28;20045;-62
2022/07/28 00:26:36;;;;;;;2.95;1.40;;;15.40;99.90;;;;;;5029655;28;20029;-61
2022/07/28 00:29:03;;;;;;;3.80;1.33;;;15.40;99.90;;;;;;5006537;28;20037;-62
2022/07/28 00:31:28;;;;;;;3.28;1.02;;;15.50;99.90;;;;;;5004122;28;20037;-63
2022/07/28 00:33:54;;;;;;;2.47;1.10;;;15.70;99.90;;;;;;5006628;28;20025;-62
2022/07/28 00:36:19;;;;;;;12.57;1.20;;;15.70;99.90;;;;;;5002508;28;20117;-62
2022/07/28 00:38:45;;;;;;;6.10;1.60;;;15.90;99.90;;;;;;5002553;28;20080;-59
2022/07/28 00:41:11;;;;;;;6.82;1.67;;;15.90;99.90;;;;;;5002776;28;20025;-62
2022/07/28 00:43:45;;;;;;;2.38;1.30;;;16.00;99.90;;;;;;5002680;28;20396;-62
2022/07/28 00:46:12;;;;;;;3.65;1.33;;;15.90;99.90;;;;;;5006780;28;20040;-63
2022/07/28 00:48:43;;;;;;;5.03;1.30;;;16.00;99.90;;;;;;5011700;28;20030;-62
2022/07/28 00:51:10;;;;;;;4.32;1.30;;;16.00;99.90;;;;;;5010906;28;20037;-62
2022/07/28 00:53:39;;;;;;;2.70;1.48;;;16.00;99.90;;;;;;5012771;28;20032;-62
2022/07/28 00:56:05;;;;;;;7.07;1.45;;;16.00;99.90;;;;;;5016805;28;20123;-62
2022/07/28 00:58:30;;;;;;;8.32;1.70;;;16.00;99.90;;;;;;5013709;28;20018;-62
2022/07/28 01:00:56;;;;;;;8.75;1.60;;;16.00;99.90;;;;;;5024583;28;20037;-62
2022/07/28 01:03:23;;;;;;;4.97;1.13;;;16.00;99.90;;;;;;5020064;28;20060;-62
2022/07/28 01:05:57;;;;;;;5.78;2.03;;;16.00;99.90;;;;;;5015882;28;20033;-62
2022/07/28 01:08:42;;;;;;;6.70;1.42;;;16.00;99.90;;;;;;5008472;28;20030;-63
2022/07/28 01:11:31;;;;;;;3.17;1.20;;;16.00;99.90;;;;;;5006099;28;20034;-62
2022/07/28 01:14:07;;;;;;;6.30;1.30;;;15.90;99.90;;;;;;5013260;28;20060;-59
2022/07/28 01:16:37;;;;;;;8.25;1.63;;;15.90;99.90;;;;;;5001292;28;20902;-61
2022/07/28 01:19:35;;;;;;;4.35;1.10;;;15.90;99.90;;;;;;5002220;28;20022;-62
2022/07/28 01:22:03;;;;;;;3.00;0.98;;;15.90;99.90;;;;;;4981253;28;20030;-62
2022/07/28 01:24:58;;;;;;;9.05;1.20;;;15.90;99.90;;;;;;5003245;28;20029;-62
2022/07/28 01:27:27;;;;;;;5.25;1.55;;;15.90;99.90;;;;;;5001663;28;20034;-62
2022/07/28 01:30:21;;;;;;;5.22;1.30;;;15.90;99.90;;;;;;5018088;28;20028;-62
2022/07/28 01:32:54;;;;;;;5.88;1.40;;;15.90;99.90;;;;;;5009664;28;20879;-60
2022/07/28 01:35:27;;;;;;;3.45;1.23;;;15.90;99.90;;;;;;5006710;28;20033;-61
2022/07/28 01:37:58;;;;;;;4.20;1.60;;;15.80;99.90;;;;;;5009810;28;20112;-62
2022/07/28 01:40:28;;;;;;;4.88;1.45;;;15.80;99.90;;;;;;5008531;28;20026;-60
2022/07/28 01:42:59;;;;;;;2.70;0.90;;;15.70;99.90;;;;;;5007805;28;20033;-62
2022/07/28 01:45:25;;;;;;;8.20;1.70;;;15.60;99.90;;;;;;5007438;28;20037;-62
2022/07/28 01:47:54;;;;;;;6.07;1.60;;;15.50;99.90;;;;;;5009791;28;20073;-62
2022/07/28 01:50:21;;;;;;;5.25;1.40;;;15.40;99.90;;;;;;5008581;28;20061;-60
2022/07/28 01:52:48;;;;;;;1.42;1.20;;;15.30;99.90;;;;;;5009836;28;20022;-62
2022/07/28 01:55:17;;;;;;;3.55;1.67;;;15.20;99.90;;;;;;5008908;28;20037;-62
2022/07/28 01:57:45;;;;;;;5.43;1.90;;;15.10;99.90;;;;;;5006619;28;20033;-62
2022/07/28 02:00:12;;;;;;;8.60;1.20;;;15.00;99.90;;;;;;5008023;28;20022;-62
2022/07/28 02:02:41;;;;;;;4.13;1.40;;;14.90;99.90;;;;;;5008043;28;20030;-63
2022/07/28 02:05:08;;;;;;;3.22;1.30;;;14.80;99.90;;;;;;5016959;28;20036;-62
2022/07/28 02:07:35;;;;;;;3.85;1.65;;;14.70;99.90;;;;;;5021308;28;20836;-59
2022/07/28 02:10:01;;;;;;;2.65;1.35;;;14.60;99.90;;;;;;5008545;28;20040;-60
2022/07/28 02:12:28;;;;;;;3.75;1.33;;;14.60;99.90;;;;;;5009202;28;20048;-62
2022/07/28 02:14:55;;;;;;;4.30;1.67;;;14.40;99.90;;;;;;5008258;28;22444;-62
2022/07/28 02:17:28;;;;;;;3.20;1.17;;;14.50;99.90;;;;;;5007124;28;20156;-62
2022/07/28 02:19:55;;;;;;;3.67;1.40;;;14.50;99.90;;;;;;5009533;28;20076;-62
2022/07/28 02:22:21;;;;;;;5.25;1.58;;;14.50;99.90;;;;;;4993674;28;20515;-62
2022/07/28 02:24:47;;;;;;;6.07;1.85;;;14.50;99.90;;;;;;5007607;28;20036;-61
2022/07/28 02:27:26;;;;;;;8.02;1.77;;;14.50;99.90;;;;;;5008711;28;20092;-58
2022/07/28 02:30:18;;;;;;;3.85;1.33;;;14.60;99.90;;;;;;5007823;28;20029;-61
2022/07/28 02:32:53;;;;;;;6.25;1.92;;;14.70;99.90;;;;;;5007177;28;20045;-60
2022/07/28 02:35:26;;;;;;;7.63;1.70;;;14.70;99.90;;;;;;5009663;28;20502;-60
2022/07/28 02:37:57;;;;;;;5.05;1.40;;;14.80;99.90;;;;;;5008555;28;20021;-59
2022/07/28 02:40:27;;;;;;;7.07;2.15;;;14.80;99.90;;;;;;5009882;28;20037;-61
2022/07/28 02:42:54;;;;;;;1.90;1.42;;;14.70;99.90;;;;;;5007972;28;20034;-61
2022/07/28 02:45:25;;;;;;;4.97;1.50;;;14.60;99.90;;;;;;5008863;28;20033;-61
2022/07/28 02:47:55;;;;;;;4.20;1.65;;;14.50;99.90;;;;;;5007823;28;20099;-60
2022/07/28 02:50:24;;;;;;;4.97;1.60;;;14.30;99.90;;;;;;5006371;28;20032;-61
2022/07/28 02:52:53;;;;;;;7.53;1.42;;;14.30;99.90;;;;;;5009084;28;20033;-61
2022/07/28 02:55:19;;;;;;;6.88;1.58;;;14.10;99.90;;;;;;5012722;28;20052;-61
2022/07/28 02:57:45;;;;;;;9.07;1.33;;;14.00;99.90;;;;;;5004886;28;20010;-61
2022/07/28 03:00:12;;;;;;;5.45;1.48;;;14.00;99.90;;;;;;5017474;28;20197;-61
2022/07/28 03:02:40;;;;;;;6.75;1.70;;;14.00;99.90;;;;;;5012241;28;20415;-61
2022/07/28 03:05:06;;;;;;;4.68;1.48;;;13.90;99.90;;;;;;5003763;28;20403;-61
2022/07/28 03:07:35;;;;;;;6.35;1.70;;;13.70;99.90;;;;;;5024449;28;20593;-61
2022/07/28 03:10:02;;;;;;;6.05;1.40;;;13.70;99.90;;;;;;5021792;28;20053;-61
2022/07/28 03:12:28;;;;;;;4.55;1.50;;;13.60;99.90;;;;;;5022970;28;20033;-61
2022/07/28 03:14:53;;;;;;;6.22;1.50;;;13.60;99.90;;;;;;5014234;28;20036;-60
2022/07/28 03:17:19;;;;;;;13.45;2.22;;;13.60;99.90;;;;;;5009639;28;20443;-61
2022/07/28 03:19:45;;;;;;;2.58;1.35;;;13.50;99.90;;;;;;5015533;28;20171;-60
2022/07/28 03:22:11;;;;;;;2.55;1.65;;;13.60;99.90;;;;;;5004856;28;20110;-61
2022/07/28 03:24:40;;;;;;;6.47;1.50;;;13.50;99.90;;;;;;5007547;28;20112;-60
2022/07/28 03:27:16;;;;;;;7.00;1.88;;;13.50;99.90;;;;;;5005278;28;20594;-60
2022/07/28 03:29:45;;;;;;;4.78;1.50;;;13.50;99.90;;;;;;5027028;23;20048;-61
2022/07/28 03:32:11;;;;;;;7.88;1.65;;;13.40;99.90;;;;;;5042735;28;20116;-61
2022/07/28 03:34:37;;;;;;;7.13;2.00;;;13.40;99.90;;;;;;5058976;28;20075;-62
2022/07/28 03:37:10;;;;;;;6.60;1.83;;;13.30;99.90;;;;;;5044361;28;19956;-61
2022/07/28 03:39:44;;;;;;;7.32;1.88;;;13.30;99.90;;;;;;5039018;28;20021;-60
2022/07/28 03:42:10;;;;;;;8.18;2.15;;;13.20;99.90;;;;;;5029773;28;20022;-61
2022/07/28 03:44:38;;;;;;;5.82;1.90;;;13.10;99.90;;;;;;5030451;28;20091;-60
2022/07/28 03:47:03;;;;;;;6.35;2.13;;;13.10;99.90;;;;;;5030529;28;20079;-61
2022/07/28 03:49:29;;;;;;;2.92;1.50;;;13.00;99.90;;;;;;5029730;28;20483;-61
2022/07/28 03:51:54;;;;;;;8.82;1.80;;;12.90;99.90;;;;;;5030866;28;20037;-61
2022/07/28 03:54:20;;;;;;;8.32;1.75;;;12.90;99.90;;;;;;5029346;28;20048;-63
2022/07/28 03:56:45;;;;;;;6.70;1.77;;;12.80;99.90;;;;;;5030280;28;20037;-62
2022/07/28 03:59:11;;;;;;;8.88;2.58;;;12.80;99.90;;;;;;5026703;28;20372;-60
2022/07/28 04:01:37;;;;;;;2.95;1.98;;;12.80;99.90;;;;;;5026943;28;20030;-62
2022/07/28 04:04:02;;;;;;;7.03;1.90;;;12.80;99.90;;;;;;5030937;28;20017;-59
2022/07/28 04:06:28;;;;;;;5.85;2.05;;;12.80;99.90;;;;;;5026320;28;20021;-61
2022/07/28 04:08:53;;;;;;;4.07;1.83;;;12.80;99.90;;;;;;5028788;28;20022;-63
2022/07/28 04:11:19;;;;;;;2.80;1.55;;;12.80;99.90;;;;;;5030470;28;20021;-62
2022/07/28 04:13:44;;;;;;;7.63;2.28;;;12.80;99.90;;;;;;5031021;28;20684;-63
2022/07/28 04:16:10;;;;;;;6.88;2.10;;;12.80;99.90;;;;;;5030498;28;20386;-63
2022/07/28 04:18:35;;;;;;;5.63;2.28;;;12.70;99.90;;;;;;5030433;28;20018;-62
2022/07/28 04:21:01;;;;;;;6.78;2.35;;;12.70;99.90;;;;;;5028381;28;20508;-63
2022/07/28 04:23:26;;;;;;;6.22;2.25;;;12.70;99.90;;;;;;5021890;28;20052;-62
2022/07/28 04:25:52;;;;;;;4.15;1.75;;;12.60;99.90;;;;;;5024666;28;20037;-62
2022/07/28 04:28:17;;;;;;;5.45;2.08;;;12.70;99.90;;;;;;5022477;28;20108;-62
2022/07/28 04:30:43;;;;;;;4.93;1.92;;;12.60;99.90;;;;;;5023925;28;20128;-62
2022/07/28 04:33:08;;;;;;;5.70;1.80;;;12.60;99.90;;;;;;5021524;28;20120;-62
2022/07/28 04:35:35;;;;;;;14.27;3.22;;;12.60;99.90;;;;;;5021920;28;20065;-62
2022/07/28 04:38:01;;;;;;;5.55;2.05;;;12.60;99.90;;;;;;5021233;28;20112;-61
2022/07/28 04:40:27;;;;;;;5.22;1.95;;;12.50;99.90;;;;;;5022623;28;20120;-63
2022/07/28 04:42:53;;;;;;;5.40;2.60;;;12.60;99.90;;;;;;5023936;28;20419;-62
2022/07/28 04:45:19;;;;;;;8.02;2.38;;;12.60;99.90;;;;;;5027367;28;20043;-62
2022/07/28 04:47:44;;;;;;;4.43;2.60;;;12.70;99.90;;;;;;5021847;28;20100;-61
2022/07/28 04:50:14;;;;;;;5.78;2.28;;;12.80;99.90;;;;;;5021979;28;20029;-62
2022/07/28 04:52:39;;;;;;;3.10;2.00;;;12.90;99.90;;;;;;5021113;28;20053;-62
2022/07/28 04:55:06;;;;;;;5.53;2.20;;;12.90;99.90;;;;;;5022759;28;20115;-61
2022/07/28 04:57:31;;;;;;;9.48;2.47;;;13.00;99.90;;;;;;5022906;28;20021;-61
2022/07/28 04:59:59;;;;;;;4.70;1.98;;;13.10;99.90;;;;;;5021173;28;20029;-64
2022/07/28 05:02:25;;;;;;;9.43;2.13;;;13.10;99.90;;;;;;5022127;28;20056;-62
2022/07/28 05:04:50;;;;;;;6.35;2.20;;;13.20;99.90;;;;;;5021260;28;20122;-61
2022/07/28 05:07:16;;;;;;;10.52;2.30;;;13.30;99.90;;;;;;5021315;28;21346;-62
2022/07/28 05:09:41;;;;;;;7.97;2.67;;;13.30;99.90;;;;;;5020075;28;20029;-61
2022/07/28 05:12:07;;;;;;;5.88;2.40;;;13.40;99.90;;;;;;5021222;28;20033;-61
2022/07/28 05:14:33;;;;;;;6.05;2.30;;;13.50;99.90;;;;;;5021870;28;20020;-63
2022/07/28 05:16:58;;;;;;;6.32;2.28;;;13.60;99.90;;;;;;5020902;28;20357;-62
2022/07/28 05:19:24;;;;;;;6.97;2.30;;;13.70;99.90;;;;;;5021698;28;21883;-61
2022/07/28 05:21:50;;;;;;;6.50;2.20;;;13.70;99.90;;;;;;5022635;28;20410;-61
2022/07/28 05:24:15;;;;;;;6.47;2.83;;;13.80;99.90;;;;;;5026437;28;20028;-62
2022/07/28 05:26:41;;;;;;;8.68;2.55;;;13.90;99.90;;;;;;5027274;28;20454;-62
2022/07/28 05:29:06;;;;;;;7.00;2.58;;;13.90;99.90;;;;;;5025193;28;20838;-62
2022/07/28 05:31:32;;;;;;;5.18;2.45;;;14.00;99.90;;;;;;5022043;28;20029;-62
2022/07/28 05:33:59;;;;;;;3.80;2.15;;;14.00;99.90;;;;;;5016866;28;20491;-62
2022/07/28 05:36:25;;;;;;;8.13;2.28;;;14.10;99.90;;;;;;5029102;28;20032;-60
2022/07/28 05:38:50;;;;;;;6.45;2.13;;;14.20;99.90;;;;;;5020673;28;20034;-61
2022/07/28 05:41:16;;;;;;;6.55;2.10;;;14.20;99.90;;;;;;5019140;28;20035;-61
2022/07/28 05:43:42;;;;;;;4.68;2.22;;;14.30;99.90;;;;;;5020442;28;20025;-60
2022/07/28 05:46:07;;;;;;;5.13;2.10;;;14.30;99.90;;;;;;5029124;28;20029;-61
2022/07/28 05:48:33;;;;;;;5.22;2.35;;;14.30;99.90;;;;;;5024790;28;20041;-60
2022/07/28 05:50:58;;;;;;;10.18;2.20;;;14.30;99.90;;;;;;5027823;28;20021;-58
2022/07/28 05:53:24;;;;;;;9.32;2.20;;;14.20;99.90;;;;;;5024075;28;20167;-61
2022/07/28 05:55:50;;;;;;;6.35;2.70;;;14.20;99.90;;;;;;5015103;28;20017;-61
2022/07/28 05:58:20;;;;;;;11.77;2.70;;;14.30;99.90;;;;;;5022715;28;20030;-62
2022/07/28 06:00:45;;;;;;;8.55;2.65;;;14.40;99.90;;;;;;5023908;28;20104;-60
2022/07/28 06:03:11;;;;;;;9.32;2.95;;;14.50;99.90;;;;;;5022649;28;20100;-61
2022/07/28 06:05:36;;;;;;;5.47;2.65;;;14.70;99.90;;;;;;5026169;28;20021;-61
2022/07/28 06:08:02;;;;;;;12.90;2.55;;;14.80;99.90;;;;;;5028078;28;20034;-62
2022/07/28 06:10:57;;;;;;;7.97;2.30;;;15.00;99.90;;;;;;5024732;28;20021;-60
2022/07/28 06:13:14;;;;;;;13.20;2.60;;;15.10;99.90;;;;;;5023773;28;20551;-62
2022/07/28 06:15:40;;;;;;;10.40;2.65;;;15.30;99.90;;;;;;5025302;28;20097;-61
2022/07/28 06:18:06;;;;;;;4.57;2.10;;;15.30;99.90;;;;;;5029130;28;20113;-62
2022/07/28 06:20:32;;;;;;;10.82;2.95;;;15.50;99.90;;;;;;5027502;28;20125;-62
2022/07/28 06:22:57;;;;;;;6.05;2.75;;;15.50;99.90;;;;;;5028942;28;20473;-62
2022/07/28 06:25:25;;;;;;;4.63;2.00;;;15.60;99.90;;;;;;5028759;28;20535;-61
2022/07/28 06:27:55;;;;;;;4.38;2.00;;;15.70;99.90;;;;;;5032711;28;20029;-60
2022/07/28 06:30:22;;;;;;;8.65;2.13;;;15.80;99.90;;;;;;5030343;28;20045;-61
2022/07/28 06:32:48;;;;;;;7.35;2.20;;;15.90;99.90;;;;;;5032439;28;20056;-61
2022/07/28 06:35:15;;;;;;;5.85;2.22;;;15.90;99.90;;;;;;5030130;28;20031;-61
2022/07/28 06:37:44;;;;;;;5.80;2.13;;;15.90;99.90;;;;;;5024032;28;20049;-59
2022/07/28 06:40:11;;;;;;;4.70;1.50;;;15.90;99.90;;;;;;5029933;28;20049;-59
2022/07/28 06:42:37;;;;;;;5.82;2.05;;;15.90;99.90;;;;;;5023861;28;20530;-61
2022/07/28 06:45:04;;;;;;;8.90;2.78;;;15.90;99.90;;;;;;5029215;28;20472;-60
2022/07/28 06:47:30;;;;;;;8.77;2.22;;;16.00;99.90;;;;;;5030425;28;20431;-60
2022/07/28 06:49:55;;;;;;;8.02;2.00;;;16.10;99.90;;;;;;5031159;28;20021;-60
2022/07/28 06:52:21;;;;;;;7.03;2.50;;;16.20;99.90;;;;;;5031438;28;20406;-59
2022/07/28 06:54:50;;;;;;;10.23;2.35;;;16.20;99.90;;;;;;5030473;28;20025;-60
2022/07/28 06:57:19;;;;;;;5.40;2.17;;;16.30;99.90;;;;;;5030329;28;20021;-61
2022/07/28 06:59:45;;;;;;;5.85;1.80;;;16.40;99.90;;;;;;5030451;28;20017;-61
2022/07/28 07:02:11;;;;;;;4.18;2.10;;;16.50;99.90;;;;;;5030159;28;20566;-62
2022/07/28 07:04:37;;;;;;;7.88;2.30;;;16.60;99.90;;;;;;5032867;28;20044;-61
2022/07/28 07:07:03;;;;;;;4.80;1.67;;;16.60;99.90;;;;;;5032490;28;20021;-61
2022/07/28 07:09:29;;;;;;;13.82;2.28;;;16.70;99.90;;;;;;5031791;28;20029;-61
2022/07/28 07:11:55;;;;;;;5.82;2.00;;;16.70;99.90;;;;;;5023330;28;20036;-60
2022/07/28 07:14:20;;;;;;;4.72;1.60;;;16.80;99.90;;;;;;5031007;28;20030;-62
2022/07/28 07:16:46;;;;;;;9.52;1.70;;;16.80;99.90;;;;;;5029587;28;20027;-61
2022/07/28 07:19:11;;;;;;;5.22;1.73;;;16.90;99.90;;;;;;5027027;28;20020;-61
2022/07/28 07:21:37;;;;;;;5.68;1.85;;;16.90;99.90;;;;;;5030975;28;20038;-61
2022/07/28 07:24:03;;;;;;;5.80;1.75;;;17.00;99.90;;;;;;5029151;28;20018;-60
2022/07/28 07:26:28;;;;;;;4.85;1.92;;;17.10;99.90;;;;;;5025026;28;20519;-60
2022/07/28 07:28:54;;;;;;;7.65;1.85;;;17.20;99.90;;;;;;5031513;28;20109;-61
2022/07/28 07:31:19;;;;;;;4.03;1.70;;;17.30;99.90;;;;;;5030823;28;20402;-61
2022/07/28 07:33:45;;;;;;;4.35;1.73;;;17.40;99.90;;;;;;5028908;28;20038;-60
2022/07/28 07:36:10;;;;;;;5.63;1.50;;;17.50;99.90;;;;;;5031073;28;20025;-61
2022/07/28 07:38:37;;;;;;;4.85;1.63;;;17.60;99.90;;;;;;5031805;28;20029;-61
2022/07/28 07:41:03;;;;;;;5.38;1.35;;;17.60;99.90;;;;;;5030319;28;20543;-61
2022/07/28 07:43:28;;;;;;;4.45;1.60;;;17.60;99.90;;;;;;5030982;28;20105;-61
2022/07/28 07:45:54;;;;;;;11.57;2.25;;;17.60;99.90;;;;;;5030543;28;20081;-59
2022/07/28 07:48:19;;;;;;;7.90;1.80;;;17.60;99.90;;;;;;5028427;28;20100;-61
2022/07/28 07:50:45;;;;;;;3.92;1.73;;;17.70;99.90;;;;;;5028840;28;20145;-60
2022/07/28 07:53:10;;;;;;;6.43;1.73;;;17.70;99.90;;;;;;5031513;28;20072;-61
2022/07/28 07:55:36;;;;;;;5.72;1.88;;;17.80;99.90;;;;;;5031646;28;20042;-60
2022/07/28 07:58:02;;;;;;;3.50;1.35;;;17.80;99.90;;;;;;5031974;28;20026;-61
2022/07/28 08:00:28;;;;;;;7.57;1.30;;;17.90;99.90;;;;;;5030574;28;20045;-61
2022/07/28 08:02:54;;;;;;;2.33;1.33;;;17.90;99.90;;;;;;5029961;28;20092;-60
2022/07/28 08:05:19;;;;;;;6.60;1.90;;;18.00;99.90;;;;;;5031052;28;20113;-60
2022/07/28 08:07:45;;;;;;;6.93;1.70;;;18.10;99.90;;;;;;5031896;28;20029;-60
2022/07/28 08:10:10;;;;;;;5.40;2.03;;;18.10;99.90;;;;;;5027929;28;20036;-61
2022/07/28 08:12:36;;;;;;;8.60;2.05;;;18.20;99.90;;;;;;5030640;28;20096;-61
2022/07/28 08:15:03;;;;;;;5.28;1.92;;;18.20;99.90;;;;;;5030549;28;20025;-60
2022/07/28 08:17:28;;;;;;;8.68;1.65;;;18.30;99.90;;;;;;5036061;28;20498;-61
2022/07/28 08:19:55;;;;;;;7.53;1.73;;;18.40;99.90;;;;;;5029471;28;20026;-61
2022/07/28 08:22:20;;;;;;;4.53;1.67;;;18.50;99.90;;;;;;5028618;28;20101;-61
2022/07/28 08:24:46;;;;;;;3.00;1.52;;;18.60;99.90;;;;;;5029660;28;20113;-61
2022/07/28 08:27:12;;;;;;;10.27;1.80;;;18.60;99.90;;;;;;5029531;28;20032;-61
2022/07/28 08:29:37;;;;;;;6.60;1.58;;;18.70;99.90;;;;;;5028481;28;20037;-61
2022/07/28 08:32:03;;;;;;;5.78;1.40;;;18.80;99.90;;;;;;5029661;28;20041;-61
2022/07/28 08:34:30;;;;;;;6.50;1.50;;;19.00;99.90;;;;;;5029722;28;20025;-63
2022/07/28 08:36:56;;;;;;;3.22;1.52;;;19.00;99.90;;;;;;5030898;28;20025;-62
2022/07/28 08:39:21;;;;;;;5.63;1.73;;;19.10;99.90;;;;;;5029707;28;20079;-62
2022/07/28 08:42:11;;;;;;;5.72;1.83;;;19.10;99.90;;;;;;5028570;28;20029;-62
2022/07/28 08:44:48;;;;;;;5.90;1.48;;;19.20;99.90;;;;;;5029069;28;20014;-62
2022/07/28 08:47:15;;;;;;;4.80;2.28;;;19.30;99.90;;;;;;5028768;28;20480;-62
2022/07/28 08:49:42;;;;;;;3.97;1.70;;;19.50;99.90;;;;;;5026869;28;20025;-62
2022/07/28 08:52:12;;;;;;;9.23;1.77;;;19.60;99.90;;;;;;5029887;28;20029;-62
2022/07/28 08:54:42;;;;;;;6.03;1.58;;;19.70;99.90;;;;;;5029135;28;20025;-63
2022/07/28 08:57:11;;;;;;;6.45;1.40;;;19.80;99.90;;;;;;5028677;28;20094;-62
2022/07/28 08:59:38;;;;;;;3.88;1.60;;;19.90;99.90;;;;;;5028481;28;20026;-61
2022/07/28 09:02:03;;;;;;;5.43;2.20;;;20.10;99.90;;;;;;5027148;28;20042;-61
2022/07/28 09:04:32;;;;;;;12.15;1.70;;;20.20;99.90;;;;;;5028955;28;20379;-61
2022/07/28 09:06:58;;;;;;;5.03;1.55;;;20.30;99.90;;;;;;5029140;28;20025;-60
2022/07/28 09:09:24;;;;;;;6.28;2.47;;;20.30;99.90;;;;;;5029196;28;20029;-61
2022/07/28 09:11:50;;;;;;;3.72;1.40;;;20.40;99.90;;;;;;5026809;28;20384;-62
2022/07/28 09:14:15;;;;;;;3.95;1.55;;;20.60;99.90;;;;;;5029379;28;20057;-60
2022/07/28 09:16:41;;;;;;;3.65;1.60;;;20.70;99.90;;;;;;5026002;28;20607;-62
2022/07/28 09:19:06;;;;;;;4.00;1.45;;;20.70;99.90;;;;;;5027585;28;20545;-62
2022/07/28 09:21:32;;;;;;;2.53;1.10;;;20.80;99.90;;;;;;5029014;28;20632;-62
2022/07/28 09:23:59;;;;;;;7.25;1.65;;;20.80;99.90;;;;;;5028355;28;20049;-61
2022/07/28 09:26:24;;;;;;;6.43;1.50;;;20.80;99.90;;;;;;5028016;28;20498;-62
2022/07/28 09:28:57;;;;;;;7.68;1.70;;;20.90;99.90;;;;;;5027940;28;20021;-62
2022/07/28 09:31:25;;;;;;;3.55;1.38;;;21.00;99.90;;;;;;5062389;23;20128;-61
2022/07/28 09:33:57;;;;;;;5.18;1.30;;;21.20;99.90;;;;;;5042216;28;20032;-61
2022/07/28 09:36:23;;;;;;;6.47;1.38;;;21.30;99.90;;;;;;5048261;28;20029;-62
2022/07/28 09:38:49;;;;;;;5.55;1.20;;;21.50;99.90;;;;;;5048812;28;20021;-62
2022/07/28 09:41:17;;;;;;;8.20;1.40;;;21.60;99.90;;;;;;5047118;28;20025;-61
2022/07/28 09:43:44;;;;;;;6.05;1.63;;;21.70;99.90;;;;;;5048799;28;20021;-62
2022/07/28 09:46:14;;;;;;;6.30;1.30;;;21.70;99.90;;;;;;5045630;28;20029;-61
2022/07/28 09:48:48;;;;;;;6.78;1.40;;;21.80;99.90;;;;;;5041870;28;20085;-62
2022/07/28 09:51:18;;;;;;;4.03;1.38;;;22.00;99.90;;;;;;5045071;28;20025;-61
2022/07/28 09:53:44;;;;;;;7.93;1.60;;;22.10;99.90;;;;;;5048073;28;20025;-62
2022/07/28 09:56:11;;;;;;;6.93;1.65;;;22.20;99.90;;;;;;5048201;28;20029;-60
2022/07/28 09:58:38;;;;;;;3.90;2.00;;;22.30;99.90;;;;;;5045931;28;20031;-61
2022/07/28 10:01:19;;;;;;;8.85;1.33;;;22.60;99.90;;;;;;5045313;28;20037;-62
2022/07/28 10:03:51;;;;;;;3.65;1.05;;;22.20;99.90;;;;;;5048342;28;20028;-62
2022/07/28 10:06:32;;;;;;;3.55;1.25;;;22.60;99.90;;;;;;5045899;28;20112;-60
2022/07/28 10:09:00;;;;;;;6.85;1.30;;;22.70;99.90;;;;;;5051023;28;20044;-62
2022/07/28 10:11:27;;;;;;;6.63;1.65;;;22.90;99.90;;;;;;5052078;28;20045;-60
2022/07/28 10:14:04;;;;;;;5.68;1.70;;;22.90;99.90;;;;;;5047563;28;20032;-60
2022/07/28 10:16:32;;;;;;;2.90;1.00;;;23.10;99.90;;;;;;5049722;28;20103;-60
2022/07/28 10:19:01;;;;;;;4.30;1.40;;;23.40;99.90;;;;;;5051856;28;20024;-60
2022/07/28 10:21:30;;;;;;;4.32;1.40;;;23.80;99.90;;;;;;5050364;28;20029;-60
2022/07/28 10:23:58;;;;;;;4.65;1.30;;;24.40;99.90;;;;;;5050872;28;20108;-60
2022/07/28 10:26:42;;;;;;;4.75;1.42;;;24.50;99.90;;;;;;5052805;28;20024;-60
2022/07/28 10:29:12;;;;;;;4.30;1.15;;;24.60;99.90;;;;;;5051060;28;20513;-60
2022/07/28 10:31:54;;;;;;;7.75;1.15;;;24.60;99.90;;;;;;5052234;28;20028;-60
2022/07/28 10:34:21;;;;;;;1.05;0.75;;;24.60;99.90;;;;;;5051804;28;20101;-59
2022/07/28 10:36:49;;;;;;;2.55;1.13;;;24.70;99.90;;;;;;5050781;28;20028;-60
2022/07/28 10:39:18;;;;;;;6.38;1.10;;;25.10;99.90;;;;;;5050386;28;20100;-59
2022/07/28 10:41:44;;;;;;;6.10;1.08;;;25.40;99.90;;;;;;5051520;28;20711;-60
2022/07/28 10:44:16;;;;;;;3.75;1.10;;;25.40;99.90;;;;;;5051589;28;20025;-60
2022/07/28 10:46:42;;;;;;;6.50;1.02;;;25.60;99.90;;;;;;5050346;28;20028;-60
2022/07/28 10:49:10;;;;;;;4.30;1.02;;;25.30;99.90;;;;;;5051899;28;20028;-60
2022/07/28 10:51:40;;;;;;;5.15;1.13;;;25.30;99.90;;;;;;5050724;28;20557;-60
2022/07/28 10:54:26;;;;;;;8.00;1.23;;;25.70;99.90;;;;;;5051161;28;20029;-60
2022/07/28 10:56:54;;;;;;;3.22;0.88;;;25.50;99.90;;;;;;5049101;28;20029;-58
2022/07/28 11:00:06;;;;;;;6.65;1.10;;;25.60;99.90;;;;;;5051636;28;20062;-60
2022/07/28 11:02:44;;;;;;;5.75;1.10;;;25.30;99.90;;;;;;5051056;28;20021;-62
2022/07/28 11:05:27;;;;;;;3.42;1.02;;;25.50;99.90;;;;;;5051140;28;20017;-62
2022/07/28 11:07:53;;;;;;;1.67;0.93;;;25.50;99.90;;;;;;5047701;28;20019;-62
2022/07/28 11:10:20;;;;;;;3.40;1.27;;;25.50;99.90;;;;;;5049434;28;20021;-62
2022/07/28 11:12:56;;;;;;;4.53;1.02;;;25.50;99.90;;;;;;5051614;28;20017;-60
2022/07/28 11:15:32;;;;;;;1.25;0.80;;;25.50;99.90;;;;;;5046174;28;20021;-61
2022/07/28 11:18:08;;;;;;;1.77;0.90;;;25.60;99.90;;;;;;5051848;28;20017;-62
2022/07/28 11:20:52;;;;;;;5.45;1.35;;;26.10;99.90;;;;;;5049491;28;20425;-60
2022/07/28 11:23:36;;;;;;;2.67;1.13;;;26.20;99.90;;;;;;5051191;28;20025;-60
2022/07/28 11:26:23;;;;;;;;;;;26.40;99.90;;;;;;5049782;28;20037;-58
2022/07/28 11:29:07;;;;;;;7.45;1.88;;;26.40;99.90;;;;;;5048098;28;19909;-60
2022/07/28 11:31:47;;;;;;;3.88;1.10;;;26.40;99.90;;;;;;5048937;28;20021;-63
2022/07/28 11:34:14;;;;;;;1.95;0.95;;;26.70;99.90;;;;;;5052470;28;20107;-59
2022/07/28 11:37:01;;;;;;;11.68;1.00;;;27.10;99.90;;;;;;5051178;28;20075;-60
2022/07/28 11:39:29;;;;;;;4.10;1.20;;;26.50;99.90;;;;;;5047944;28;20036;-59
2022/07/28 11:41:55;;;;;;;21.63;2.70;;;26.30;99.90;;;;;;5049801;28;20021;-59
2022/07/28 11:44:27;;;;;;;6.70;2.00;;;26.50;99.90;;;;;;5050887;28;21515;-60
2022/07/28 11:46:54;;;;;;;4.93;1.25;;;26.50;99.90;;;;;;5048287;28;20024;-60
2022/07/28 11:49:21;;;;;;;4.13;1.33;;;26.90;99.90;;;;;;5030204;28;20204;-60
2022/07/28 11:52:11;;;;;;;2.80;1.00;;;27.20;99.70;;;;;;5052626;28;20025;-60
2022/07/28 11:54:37;;;;;;;6.53;1.20;;;26.80;99.00;;;;;;5051088;28;20495;-60
2022/07/28 11:57:03;;;;;;;3.10;1.00;;;27.00;99.90;;;;;;5049738;28;20033;-60
2022/07/28 11:59:52;;;;;;;5.85;2.45;;;27.40;98.40;;;;;;5049058;28;20506;-60
2022/07/28 12:02:23;;;;;;;3.50;1.58;;;27.60;97.50;;;;;;5052090;28;20055;-60
2022/07/28 12:05:01;;;;;;;4.70;1.00;;;27.30;97.40;;;;;;5049466;28;20029;-60
2022/07/28 12:07:33;;;;;;;4.07;1.02;;;26.90;98.10;;;;;;5051458;28;20033;-59
2022/07/28 12:10:00;;;;;;;3.20;1.10;;;27.10;97.60;;;;;;5050360;28;20560;-60
2022/07/28 12:12:29;;;;;;;4.82;1.58;;;26.90;97.70;;;;;;5048455;28;20394;-60
2022/07/28 12:14:55;;;;;;;10.90;1.10;;;26.70;98.40;;;;;;5048988;28;20135;-60
2022/07/28 12:17:30;;;;;;;4.43;1.20;;;26.90;98.10;;;;;;5047359;28;20116;-60
2022/07/28 12:20:03;;;;;;;2.67;1.00;;;27.00;97.80;;;;;;5048947;28;20543;-60
2022/07/28 12:22:29;;;;;;;6.45;1.20;;;27.00;97.30;;;;;;5048259;28;20171;-60
2022/07/28 12:24:56;;;;;;;1.67;0.95;;;27.00;97.10;;;;;;5049428;28;20048;-60
2022/07/28 12:27:26;;;;;;;2.17;0.88;;;27.00;97.20;;;;;;5049527;28;20094;-60
2022/07/28 12:30:00;;;;;;;1.40;0.90;;;27.20;97.80;;;;;;5049642;28;20024;-60
2022/07/28 12:32:36;;;;;;;2.67;1.00;;;26.80;98.60;;;;;;5049444;28;20037;-60
2022/07/28 12:35:02;;;;;;;3.47;1.10;;;27.00;98.60;;;;;;5048441;28;20041;-60
2022/07/28 12:37:28;;;;;;;4.72;0.80;;;27.10;97.80;;;;;;5031259;28;20051;-60
2022/07/28 12:39:54;;;;;;;3.95;1.10;;;26.90;98.40;;;;;;5048014;28;20029;-60
2022/07/28 12:42:20;;;;;;;3.58;0.90;;;26.90;98.20;;;;;;5046968;28;20029;-60
2022/07/28 12:44:47;;;;;;;2.17;1.10;;;26.70;99.90;;;;;;5048546;28;20511;-60
2022/07/28 12:47:14;;;;;;;2.17;1.00;;;26.50;99.60;;;;;;5049355;28;20029;-60
2022/07/28 12:49:43;;;;;;;2.40;1.00;;;26.00;97.70;;;;;;5049452;28;20029;-60
2022/07/28 12:52:16;;;;;;;1.95;0.85;;;26.30;98.60;;;;;;5048499;28;20107;-60
2022/07/28 12:54:42;;;;;;;3.92;0.90;;;26.40;98.50;;;;;;5047968;28;20038;-59